createdAt,value
2022-11-04T00:04:06.852Z,16.33
2022-11-04T00:09:11.560Z,15.52
2022-11-04T00:14:14.604Z,15.35
2022-11-04T00:19:16.470Z,15.15
2022-11-04T00:24:36.676Z,14.50
2022-11-04T00:29:38.338Z,16.00
2022-11-04T00:34:39.991Z,21.88
2022-11-04T00:39:41.668Z,19.83
2022-11-04T00:44:43.361Z,23.67
2022-11-04T00:49:45.006Z,31.33
2022-11-04T00:54:47.569Z,21.60
2022-11-04T00:59:49.241Z,21.13
2022-11-04T01:04:50.903Z,22.63
2022-11-04T01:09:52.809Z,17.65
2022-11-04T01:14:54.542Z,16.25
2022-11-04T01:19:56.197Z,16.25
2022-11-04T01:24:57.880Z,16.35
2022-11-04T01:29:59.545Z,16.67
2022-11-04T01:35:01.219Z,15.07
2022-11-04T01:40:02.942Z,15.63
2022-11-04T01:45:05.042Z,17.42
2022-11-04T01:50:10.488Z,20.58
2022-11-04T01:55:20.701Z,22.70
2022-11-04T02:00:22.583Z,21.98
2022-11-04T02:05:24.268Z,20.95
2022-11-04T02:10:28.597Z,18.42
2022-11-04T02:15:45.521Z,21.77
2022-11-04T02:21:24.799Z,19.92
2022-11-04T02:26:57.266Z,20.38
2022-11-04T02:32:49.343Z,21.55
2022-11-04T02:38:07.875Z,21.58
2022-11-04T02:43:21.967Z,21.90
2022-11-04T02:48:49.381Z,24.77
2022-11-04T02:54:14.575Z,23.05
2022-11-04T02:59:37.271Z,30.85
2022-11-04T03:04:43.966Z,30.73
2022-11-04T03:09:51.945Z,28.58
2022-11-04T03:15:01.907Z,27.35
2022-11-04T03:20:07.382Z,21.73
2022-11-04T03:25:10.330Z,21.15
2022-11-04T03:30:21.613Z,22.15
2022-11-04T03:35:24.097Z,25.08
2022-11-04T03:40:26.222Z,25.70
2022-11-04T03:45:28.013Z,24.50
2022-11-04T03:50:32.835Z,26.25
2022-11-04T03:55:49.241Z,24.15
2022-11-04T04:01:00.488Z,27.77
2022-11-04T04:06:15.488Z,25.40
2022-11-04T04:11:29.973Z,25.48
2022-11-04T04:16:42.435Z,26.05
2022-11-04T04:21:51.415Z,27.20
2022-11-04T04:27:13.891Z,28.10
2022-11-04T04:32:16.913Z,29.15
2022-11-04T04:37:22.104Z,30.55
2022-11-04T04:42:42.579Z,28.25
2022-11-04T04:47:46.616Z,30.25
2022-11-04T04:52:51.082Z,38.47
2022-11-04T04:57:52.745Z,31.63
2022-11-04T05:02:54.405Z,40.70
2022-11-04T05:07:56.080Z,37.28
2022-11-04T05:13:18.372Z,38.63
2022-11-04T05:18:20.616Z,43.03
2022-11-04T05:23:22.346Z,39.03
2022-11-04T05:28:24.053Z,45.53
2022-11-04T05:33:25.709Z,44.58
2022-11-04T05:38:27.407Z,40.53
2022-11-04T05:43:29.262Z,40.28
2022-11-04T05:48:31.796Z,43.10
2022-11-04T05:53:35.772Z,42.13
2022-11-04T05:58:37.443Z,40.80
2022-11-04T06:03:39.178Z,41.38
2022-11-04T06:08:44.992Z,37.25
2022-11-04T06:13:47.214Z,34.08
2022-11-04T06:18:48.955Z,28.98
2022-11-04T06:23:51.756Z,27.48
2022-11-04T06:28:53.615Z,24.08
2022-11-04T06:33:55.328Z,22.67
2022-11-04T06:39:03.065Z,20.38
2022-11-04T06:44:06.250Z,18.02
2022-11-04T06:49:13.195Z,16.95
2022-11-04T06:54:15.934Z,15.90
2022-11-04T06:59:19.794Z,14.95
2022-11-04T07:04:21.493Z,15.38
2022-11-04T07:09:23.292Z,15.23
2022-11-04T07:14:25.049Z,13.98
2022-11-04T07:19:26.721Z,12.98
2022-11-04T07:24:28.392Z,11.48
2022-11-04T07:29:30.091Z,10.80
2022-11-04T07:34:31.772Z,10.00
2022-11-04T07:39:33.461Z,9.98
2022-11-04T07:44:35.119Z,9.30
2022-11-04T07:49:36.826Z,10.55
2022-11-04T07:54:38.538Z,10.70
2022-11-04T07:59:40.225Z,10.25
2022-11-04T08:04:41.924Z,9.13
2022-11-04T08:09:43.657Z,9.25
2022-11-04T08:14:46.434Z,9.20
2022-11-04T08:19:48.119Z,9.95
2022-11-04T08:24:51.293Z,10.65
2022-11-04T08:29:52.960Z,9.93
2022-11-04T08:34:54.668Z,10.38
2022-11-04T08:39:56.326Z,10.45
2022-11-04T08:44:58.078Z,9.95
2022-11-04T08:49:59.797Z,7.40
2022-11-04T08:55:01.518Z,7.72
2022-11-04T09:00:04.517Z,7.45
2022-11-04T09:05:07.017Z,7.82
2022-11-04T09:10:10.219Z,7.78
2022-11-04T09:15:12.444Z,8.88
2022-11-04T09:20:14.208Z,9.48
2022-11-04T09:25:15.987Z,8.48
2022-11-04T09:30:17.796Z,8.80
2022-11-04T09:35:19.835Z,8.80
2022-11-04T09:40:24.707Z,10.07
2022-11-04T09:45:31.847Z,9.40
2022-11-04T09:50:52.618Z,8.63
2022-11-04T09:55:58.583Z,9.18
2022-11-04T10:01:15.011Z,9.10
2022-11-04T10:07:01.576Z,10.10
2022-11-04T10:12:39.512Z,9.02
2022-11-04T10:17:56.122Z,8.32
2022-11-04T10:23:02.570Z,6.90
2022-11-04T10:28:08.506Z,6.13
2022-11-04T10:33:21.300Z,5.60
2022-11-04T10:38:44.188Z,5.97
2022-11-04T10:43:46.691Z,6.47
2022-11-04T10:49:21.756Z,5.70
2022-11-04T10:54:26.817Z,6.35
2022-11-04T10:59:31.762Z,4.93
2022-11-04T11:04:38.230Z,5.28
2022-11-04T11:09:49.744Z,5.38
2022-11-04T11:14:55.188Z,4.93
2022-11-04T11:20:08.298Z,4.72
2022-11-04T11:25:22.009Z,4.95
2022-11-04T11:30:34.019Z,4.50
2022-11-04T11:35:42.289Z,4.45
2022-11-04T11:41:03.829Z,4.55
2022-11-04T11:46:06.217Z,4.05
2022-11-04T11:51:07.873Z,4.75
2022-11-04T11:56:52.064Z,4.18
2022-11-04T12:02:21.341Z,3.92
2022-11-04T12:13:26.950Z,4.80
2022-11-04T12:18:58.194Z,4.45
2022-11-04T12:24:03.940Z,5.72
2022-11-04T12:29:42.890Z,4.90
2022-11-04T12:34:45.517Z,5.25
2022-11-04T12:39:56.331Z,5.35
2022-11-04T12:45:07.526Z,5.80
2022-11-04T12:50:33.820Z,4.63
2022-11-04T12:55:44.947Z,5.43
2022-11-04T13:00:56.568Z,4.38
2022-11-04T13:06:12.886Z,4.93
2022-11-04T13:11:26.932Z,4.18
2022-11-04T13:16:30.613Z,5.03
2022-11-04T13:21:36.399Z,5.78
2022-11-04T13:26:38.085Z,6.88
2022-11-04T13:31:50.707Z,6.63
2022-11-04T13:37:20.894Z,7.05
2022-11-04T13:42:25.663Z,6.75
2022-11-04T13:47:43.066Z,5.75
2022-11-04T13:52:52.513Z,5.90
2022-11-04T13:58:01.537Z,7.05
2022-11-04T14:03:21.865Z,5.68
2022-11-04T14:08:24.310Z,7.15
2022-11-04T14:13:34.169Z,6.97
2022-11-04T14:18:38.320Z,7.60
2022-11-04T14:23:43.646Z,7.30
2022-11-04T14:29:00.065Z,8.32
2022-11-04T14:34:02.517Z,9.93
2022-11-04T14:39:10.098Z,8.23
2022-11-04T14:44:32.502Z,7.18
2022-11-04T14:49:44.034Z,7.50
2022-11-04T14:54:46.248Z,8.18
2022-11-04T14:59:48.447Z,8.50
2022-11-04T15:04:59.057Z,7.60
2022-11-04T15:10:03.273Z,8.07
2022-11-04T15:15:44.801Z,6.85
2022-11-04T15:20:53.115Z,7.95
2022-11-04T15:25:55.868Z,7.78
2022-11-04T15:31:02.114Z,8.10
2022-11-04T15:36:04.288Z,7.45
2022-11-04T15:41:24.563Z,8.13
2022-11-04T15:46:29.499Z,7.88
2022-11-04T15:51:36.786Z,8.75
2022-11-04T15:56:50.886Z,8.88
2022-11-04T16:01:53.535Z,9.30
2022-11-04T16:07:10.244Z,8.15
2022-11-04T16:12:16.128Z,8.82
2022-11-04T16:17:18.798Z,8.85
2022-11-04T16:22:29.737Z,10.57
2022-11-04T16:27:34.720Z,11.57
2022-11-04T16:32:43.835Z,11.43
2022-11-04T16:37:46.297Z,11.07
2022-11-04T16:42:50.370Z,8.43
2022-11-04T16:47:52.850Z,8.23
2022-11-04T16:52:54.916Z,6.78
2022-11-04T16:58:00.870Z,7.72
2022-11-04T17:03:21.125Z,7.43
2022-11-04T17:08:26.521Z,7.07
2022-11-04T17:13:32.048Z,7.50
2022-11-04T17:18:36.790Z,7.28
2022-11-04T17:23:38.440Z,8.02
2022-11-04T17:28:40.152Z,7.35
2022-11-04T17:33:41.765Z,7.85
2022-11-04T17:38:43.446Z,7.22
2022-11-04T17:44:00.011Z,7.70
2022-11-04T17:49:04.413Z,8.60
2022-11-04T17:54:06.773Z,8.57
2022-11-04T17:59:10.588Z,9.00
2022-11-04T18:04:14.521Z,8.65
2022-11-04T18:09:17.474Z,9.40
2022-11-04T18:14:19.153Z,8.75
2022-11-04T18:19:23.041Z,8.98
2022-11-04T18:24:24.833Z,10.18
2022-11-04T18:29:27.247Z,9.10
2022-11-04T18:34:29.102Z,10.57
2022-11-04T18:39:30.805Z,11.57
2022-11-04T18:44:32.466Z,10.43
2022-11-04T18:49:34.165Z,10.30
2022-11-04T18:54:36.381Z,11.07
2022-11-04T18:59:38.113Z,10.70
2022-11-04T19:04:39.763Z,9.70
2022-11-04T19:09:48.936Z,10.55
2022-11-04T19:14:50.833Z,10.48
2022-11-04T19:19:52.592Z,10.73
2022-11-04T19:24:54.251Z,10.45
2022-11-04T19:29:56.284Z,11.15
2022-11-04T19:34:57.939Z,11.00
2022-11-04T19:39:59.692Z,12.30
2022-11-04T19:45:01.543Z,10.75
2022-11-04T19:50:03.529Z,11.13
2022-11-04T19:55:05.553Z,11.27
2022-11-04T20:00:08.079Z,11.95
2022-11-04T20:05:15.700Z,12.05
2022-11-04T20:10:17.350Z,17.13
2022-11-04T20:15:19.661Z,10.68
2022-11-04T20:20:21.321Z,12.15
2022-11-04T20:25:23.121Z,10.98
2022-11-04T20:30:24.786Z,12.43
2022-11-04T20:35:26.503Z,12.70
2022-11-04T20:40:28.278Z,12.02
2022-11-04T20:45:30.347Z,13.50
2022-11-04T20:50:32.003Z,12.45
2022-11-04T20:55:33.769Z,11.15
2022-11-04T21:00:35.472Z,10.45
2022-11-04T21:05:37.132Z,10.35
2022-11-04T21:10:38.815Z,10.95
2022-11-04T21:15:40.483Z,12.52
2022-11-04T21:20:42.722Z,12.25
2022-11-04T21:25:54.702Z,13.40
2022-11-04T21:31:02.906Z,14.10
2022-11-04T21:36:06.830Z,12.13
2022-11-04T21:41:13.028Z,10.90
2022-11-04T21:46:15.750Z,11.93
2022-11-04T21:51:20.293Z,11.88
2022-11-04T21:56:26.522Z,11.23
2022-11-04T22:01:30.687Z,12.40
2022-11-04T22:06:35.180Z,11.80
2022-11-04T22:11:39.066Z,10.25
2022-11-04T22:16:41.187Z,12.68
2022-11-04T22:21:45.135Z,11.70
2022-11-04T22:26:47.936Z,14.02
2022-11-04T22:31:49.634Z,13.05
2022-11-04T22:36:51.299Z,12.80
2022-11-04T22:41:52.959Z,12.38
2022-11-04T22:46:54.620Z,12.73
2022-11-04T22:51:56.294Z,13.00
2022-11-04T22:56:58.073Z,12.75
2022-11-04T23:01:59.939Z,12.90
2022-11-04T23:07:01.723Z,13.13
2022-11-04T23:12:22.192Z,13.45
2022-11-04T23:17:42.750Z,13.05
2022-11-04T23:23:03.092Z,12.35
2022-11-04T23:28:23.270Z,11.77
2022-11-04T23:33:44.977Z,10.93
2022-11-04T23:38:50.289Z,13.25
2022-11-04T23:43:52.526Z,13.23
2022-11-04T23:49:26.482Z,14.77
2022-11-04T23:54:47.194Z,14.80
